Time;durP1;ratioP1;P1;durP2;ratioP2;P2;SDS_P1;SDS_P2;PMS_P1;PMS_P2;Temp;Humidity;BMP_temperature;BMP_pressure;BME280_temperature;BME280_humidity;BME280_pressure;Samples;Min_cycle;Max_cycle;Signal;HPM_P1;HPM_P2
2020/08/30 00:03:28;;;;;;;3.12;1.31;;;;;;;22.06;65.64;99451.95;;;;-52
2020/08/30 00:06:28;;;;;;;1.43;1.29;;;;;;;22.07;65.72;99450.23;;;;-52
2020/08/30 00:09:28;;;;;;;2.35;1.35;;;;;;;22.06;65.67;99450.07;;;;-52
2020/08/30 00:12:28;;;;;;;1.91;1.49;;;;;;;22.06;65.69;99460.02;;;;-47
2020/08/30 00:15:28;;;;;;;1.50;1.40;;;;;;;22.06;65.68;99463.39;;;;-52
2020/08/30 00:18:28;;;;;;;1.55;1.25;;;;;;;22.06;65.73;99457.27;;;;-52
2020/08/30 00:21:28;;;;;;;1.54;1.40;;;;;;;22.05;65.65;99459.46;;;;-52
2020/08/30 00:24:28;;;;;;;1.75;1.32;;;;;;;22.05;65.73;99463.66;;;;-53
2020/08/30 00:27:28;;;;;;;1.66;1.31;;;;;;;22.05;65.64;99466.66;;;;-52
2020/08/30 00:30:28;;;;;;;1.34;1.24;;;;;;;22.05;65.72;99460.63;;;;-52
2020/08/30 00:33:28;;;;;;;1.35;1.25;;;;;;;22.05;65.72;99465.69;;;;-53
2020/08/30 00:36:28;;;;;;;1.56;1.23;;;;;;;22.04;65.65;99480.56;;;;-52
2020/08/30 00:39:28;;;;;;;1.40;1.30;;;;;;;22.03;65.64;99484.23;;;;-52
2020/08/30 00:42:28;;;;;;;1.44;1.30;;;;;;;22.03;65.63;99468.98;;;;-52
2020/08/30 00:45:28;;;;;;;2.43;1.31;;;;;;;22.03;65.72;99464.83;;;;-44
2020/08/30 00:48:28;;;;;;;1.51;1.31;;;;;;;22.03;65.65;99466.47;;;;-44
2020/08/30 00:51:28;;;;;;;2.25;1.45;;;;;;;22.02;65.66;99463.55;;;;-52
2020/08/30 00:54:28;;;;;;;1.42;1.30;;;;;;;22.02;65.73;99464.69;;;;-52
2020/08/30 00:57:31;;;;;;;2.72;1.39;;;;;;;22.02;65.75;99458.23;;;;-48
2020/08/30 01:00:41;;;;;;;1.57;1.28;;;;;;;22.01;65.73;99460.78;;;;-48
2020/08/30 01:03:28;;;;;;;2.14;1.30;;;;;;;22.01;65.70;99457.59;;;;-46
2020/08/30 01:06:28;;;;;;;1.52;1.41;;;;;;;22.01;65.77;99455.95;;;;-53
2020/08/30 01:09:28;;;;;;;1.62;1.30;;;;;;;22.01;65.65;99462.48;;;;-52
2020/08/30 01:12:28;;;;;;;1.47;1.26;;;;;;;22.02;65.81;99464.52;;;;-51
2020/08/30 01:15:28;;;;;;;1.49;1.27;;;;;;;22.00;65.78;99460.56;;;;-52
2020/08/30 01:18:28;;;;;;;1.66;1.30;;;;;;;22.00;65.71;99459.27;;;;-47
2020/08/30 01:21:28;;;;;;;1.93;1.41;;;;;;;22.00;65.70;99444.66;;;;-52
2020/08/30 01:24:28;;;;;;;1.46;1.31;;;;;;;21.99;65.71;99420.99;;;;-52
2020/08/30 01:27:28;;;;;;;2.05;1.40;;;;;;;21.99;65.75;99424.44;;;;-52
2020/08/30 01:30:28;;;;;;;1.96;1.38;;;;;;;21.99;65.78;99425.33;;;;-48
2020/08/30 01:33:28;;;;;;;1.39;1.25;;;;;;;21.99;65.72;99426.16;;;;-48
2020/08/30 01:36:28;;;;;;;1.40;1.30;;;;;;;21.98;65.67;99433.42;;;;-44
2020/08/30 01:39:28;;;;;;;1.30;1.20;;;;;;;21.99;65.69;99428.77;;;;-48
2020/08/30 01:42:28;;;;;;;1.29;1.19;;;;;;;21.98;65.76;99426.66;;;;-52
2020/08/30 01:45:28;;;;;;;1.44;1.30;;;;;;;21.98;65.77;99423.08;;;;-52
2020/08/30 01:48:28;;;;;;;1.40;1.30;;;;;;;21.98;65.75;99418.77;;;;-52
2020/08/30 01:51:28;;;;;;;1.72;1.30;;;;;;;21.98;65.75;99409.39;;;;-52
2020/08/30 01:54:28;;;;;;;1.33;1.22;;;;;;;21.98;65.77;99410.05;;;;-52
2020/08/30 01:57:28;;;;;;;1.45;1.29;;;;;;;21.97;65.82;99402.36;;;;-48
2020/08/30 02:00:28;;;;;;;1.36;1.26;;;;;;;21.97;65.82;99402.61;;;;-52
2020/08/30 02:03:28;;;;;;;1.40;1.25;;;;;;;21.97;65.75;99415.11;;;;-52
2020/08/30 02:06:28;;;;;;;1.73;1.37;;;;;;;21.97;65.74;99432.14;;;;-49
2020/08/30 02:09:30;;;;;;;1.30;1.20;;;;;;;21.96;65.73;99441.30;;;;-48
2020/08/30 02:12:28;;;;;;;1.32;1.22;;;;;;;21.96;65.75;99442.44;;;;-48
2020/08/30 02:15:28;;;;;;;1.44;1.26;;;;;;;21.97;65.78;99447.08;;;;-44
2020/08/30 02:18:28;;;;;;;1.41;1.25;;;;;;;21.96;65.74;99448.41;;;;-44
2020/08/30 02:21:28;;;;;;;1.37;1.27;;;;;;;21.96;65.79;99445.16;;;;-48
2020/08/30 02:24:28;;;;;;;2.61;1.24;;;;;;;21.96;65.73;99444.81;;;;-44
2020/08/30 02:27:28;;;;;;;1.79;1.22;;;;;;;21.95;65.78;99450.61;;;;-52
2020/08/30 02:30:28;;;;;;;1.30;1.20;;;;;;;21.95;65.77;99450.28;;;;-53
2020/08/30 02:33:28;;;;;;;1.30;1.20;;;;;;;21.96;65.77;99449.80;;;;-48
2020/08/30 02:36:28;;;;;;;1.50;1.40;;;;;;;21.95;65.79;99449.24;;;;-48
2020/08/30 02:39:28;;;;;;;1.30;1.20;;;;;;;21.95;65.83;99458.70;;;;-47
2020/08/30 02:42:28;;;;;;;1.30;1.20;;;;;;;21.94;65.83;99465.09;;;;-48
2020/08/30 02:45:28;;;;;;;1.49;1.30;;;;;;;21.94;65.75;99461.73;;;;-48
2020/08/30 02:48:28;;;;;;;1.40;1.30;;;;;;;21.94;65.82;99460.92;;;;-44
2020/08/30 02:51:28;;;;;;;1.30;1.20;;;;;;;21.95;65.83;99464.48;;;;-44
2020/08/30 02:54:28;;;;;;;1.29;1.20;;;;;;;21.94;65.73;99468.20;;;;-44
2020/08/30 02:57:28;;;;;;;1.39;1.20;;;;;;;21.94;65.81;99466.97;;;;-44
2020/08/30 03:00:28;;;;;;;2.15;1.20;;;;;;;21.94;65.82;99461.98;;;;-44
2020/08/30 03:03:28;;;;;;;1.39;1.29;;;;;;;21.93;65.80;99450.41;;;;-48
2020/08/30 03:06:28;;;;;;;1.29;1.20;;;;;;;21.94;65.81;99445.59;;;;-48
2020/08/30 03:09:28;;;;;;;1.30;1.20;;;;;;;21.93;65.77;99426.61;;;;-44
2020/08/30 03:12:28;;;;;;;1.38;1.28;;;;;;;21.92;65.79;99417.33;;;;-44
2020/08/30 03:15:28;;;;;;;1.45;1.34;;;;;;;21.92;65.77;99417.25;;;;-48
2020/08/30 03:18:28;;;;;;;1.33;1.23;;;;;;;21.92;65.86;99426.72;;;;-48
2020/08/30 03:21:28;;;;;;;1.25;1.15;;;;;;;21.91;65.84;99439.52;;;;-48
2020/08/30 03:24:28;;;;;;;1.31;1.21;;;;;;;21.91;65.89;99438.28;;;;-48
2020/08/30 03:27:28;;;;;;;1.37;1.27;;;;;;;21.90;65.85;99425.11;;;;-44
2020/08/30 03:30:28;;;;;;;1.30;1.20;;;;;;;21.90;65.77;99432.13;;;;-44
2020/08/30 03:33:28;;;;;;;1.24;1.14;;;;;;;21.91;65.83;99436.26;;;;-44
2020/08/30 03:36:28;;;;;;;1.28;1.18;;;;;;;21.91;65.76;99437.23;;;;-48
2020/08/30 03:39:28;;;;;;;1.35;1.18;;;;;;;21.90;65.79;99425.27;;;;-48
2020/08/30 03:42:28;;;;;;;1.28;1.18;;;;;;;21.90;65.86;99429.84;;;;-52
2020/08/30 03:45:28;;;;;;;1.25;1.15;;;;;;;21.90;65.90;99456.34;;;;-44
2020/08/30 03:48:28;;;;;;;1.27;1.22;;;;;;;21.90;65.91;99470.48;;;;-44
2020/08/30 03:51:28;;;;;;;1.37;1.27;;;;;;;21.90;65.76;99470.22;;;;-47
2020/08/30 03:54:28;;;;;;;1.33;1.23;;;;;;;21.90;65.92;99472.44;;;;-44
2020/08/30 03:57:28;;;;;;;1.37;1.27;;;;;;;21.89;65.81;99466.33;;;;-46
2020/08/30 04:00:28;;;;;;;1.30;1.20;;;;;;;21.90;65.95;99469.34;;;;-48
2020/08/30 04:03:28;;;;;;;1.45;1.30;;;;;;;21.90;65.79;99462.32;;;;-44
2020/08/30 04:06:28;;;;;;;1.33;1.23;;;;;;;21.89;65.77;99452.94;;;;-44
2020/08/30 04:10:28;;;;;;;1.37;1.23;;;;;;;21.89;65.85;99453.75;;;;-44
2020/08/30 04:13:28;;;;;;;1.38;1.28;;;;;;;21.89;65.86;99463.54;;;;-44
2020/08/30 04:16:28;;;;;;;1.34;1.20;;;;;;;21.89;65.85;99476.10;;;;-48
2020/08/30 04:19:28;;;;;;;1.51;1.25;;;;;;;21.89;65.81;99467.95;;;;-47
2020/08/30 04:22:28;;;;;;;1.30;1.20;;;;;;;21.88;65.77;99457.84;;;;-48
2020/08/30 04:25:28;;;;;;;1.35;1.25;;;;;;;21.88;65.89;99460.45;;;;-48
2020/08/30 04:28:28;;;;;;;1.63;1.27;;;;;;;21.89;65.87;99467.38;;;;-47
2020/08/30 04:31:28;;;;;;;1.30;1.20;;;;;;;21.88;65.86;99467.73;;;;-52
2020/08/30 04:34:28;;;;;;;1.41;1.31;;;;;;;21.88;65.85;99462.83;;;;-52
2020/08/30 04:37:28;;;;;;;1.63;1.25;;;;;;;21.87;65.87;99446.80;;;;-52
2020/08/30 04:40:28;;;;;;;1.27;1.17;;;;;;;21.88;65.82;99435.94;;;;-44
2020/08/30 04:43:28;;;;;;;1.28;1.19;;;;;;;21.87;65.89;99435.38;;;;-44
2020/08/30 04:46:28;;;;;;;1.39;1.29;;;;;;;21.88;65.88;99440.99;;;;-44
2020/08/30 04:49:28;;;;;;;1.39;1.27;;;;;;;21.87;65.85;99439.61;;;;-44
2020/08/30 04:52:28;;;;;;;1.40;1.30;;;;;;;21.87;65.88;99433.89;;;;-44
2020/08/30 04:55:28;;;;;;;1.91;1.21;;;;;;;21.87;65.82;99437.81;;;;-52
2020/08/30 04:58:28;;;;;;;1.18;1.10;;;;;;;21.86;65.88;99439.30;;;;-52
2020/08/30 05:01:28;;;;;;;1.55;1.21;;;;;;;21.86;65.88;99452.44;;;;-44
2020/08/30 05:04:28;;;;;;;1.17;1.13;;;;;;;21.86;65.81;99459.45;;;;-44
2020/08/30 05:07:28;;;;;;;1.33;1.23;;;;;;;21.86;65.87;99458.63;;;;-48
2020/08/30 05:10:28;;;;;;;1.41;1.31;;;;;;;21.86;65.89;99454.63;;;;-52
2020/08/30 05:13:28;;;;;;;1.35;1.27;;;;;;;21.86;65.90;99450.66;;;;-44
2020/08/30 05:16:28;;;;;;;1.54;1.20;;;;;;;21.86;65.83;99451.22;;;;-44
2020/08/30 05:19:28;;;;;;;1.35;1.25;;;;;;;21.85;65.84;99470.32;;;;-52
2020/08/30 05:22:28;;;;;;;1.10;1.10;;;;;;;21.86;65.90;99485.41;;;;-52
2020/08/30 05:25:28;;;;;;;1.24;1.20;;;;;;;21.85;65.89;99489.00;;;;-48
2020/08/30 05:28:28;;;;;;;1.27;1.17;;;;;;;21.85;65.92;99487.70;;;;-44
2020/08/30 05:31:28;;;;;;;1.17;1.11;;;;;;;21.85;65.95;99500.02;;;;-44
2020/08/30 05:34:28;;;;;;;1.31;1.21;;;;;;;21.85;65.89;99495.05;;;;-48
2020/08/30 05:37:28;;;;;;;1.81;1.20;;;;;;;21.86;65.97;99494.05;;;;-44
2020/08/30 05:40:28;;;;;;;1.21;1.15;;;;;;;21.85;65.88;99493.96;;;;-44
2020/08/30 05:43:28;;;;;;;1.39;1.22;;;;;;;21.85;65.89;99486.80;;;;-44
2020/08/30 05:46:28;;;;;;;1.29;1.19;;;;;;;21.85;65.85;99478.08;;;;-47
2020/08/30 05:49:28;;;;;;;1.33;1.23;;;;;;;21.85;65.91;99469.33;;;;-48
2020/08/30 05:52:28;;;;;;;1.32;1.22;;;;;;;21.85;65.89;99462.00;;;;-44
2020/08/30 05:55:28;;;;;;;1.07;1.07;;;;;;;21.84;65.91;99462.17;;;;-44
2020/08/30 05:58:28;;;;;;;1.28;1.18;;;;;;;21.85;65.88;99473.26;;;;-44
2020/08/30 06:01:28;;;;;;;1.30;1.20;;;;;;;21.84;65.89;99484.52;;;;-48
2020/08/30 06:04:28;;;;;;;1.49;1.39;;;;;;;21.85;65.85;99495.84;;;;-47
2020/08/30 06:07:28;;;;;;;1.30;1.20;;;;;;;21.84;65.96;99484.94;;;;-47
2020/08/30 06:10:28;;;;;;;1.35;1.25;;;;;;;21.84;65.93;99481.67;;;;-47
2020/08/30 06:14:28;;;;;;;1.30;1.20;;;;;;;21.84;66.00;99485.09;;;;-48
2020/08/30 06:17:28;;;;;;;1.06;1.06;;;;;;;21.84;65.86;99488.36;;;;-47
2020/08/30 06:20:28;;;;;;;1.30;1.20;;;;;;;21.83;65.91;99480.96;;;;-48
2020/08/30 06:23:28;;;;;;;1.29;1.19;;;;;;;21.84;65.90;99481.44;;;;-47
2020/08/30 06:26:28;;;;;;;1.19;1.10;;;;;;;21.84;65.85;99494.33;;;;-52
2020/08/30 06:29:28;;;;;;;1.32;1.22;;;;;;;21.84;66.00;99497.33;;;;-52
2020/08/30 06:32:28;;;;;;;1.41;1.31;;;;;;;21.84;65.89;99499.29;;;;-52
2020/08/30 06:35:28;;;;;;;1.10;1.10;;;;;;;21.83;65.91;99497.92;;;;-52
2020/08/30 06:38:28;;;;;;;1.39;1.29;;;;;;;21.84;65.90;99490.08;;;;-52
2020/08/30 06:41:28;;;;;;;6.67;1.62;;;;;;;21.80;64.69;99484.69;;;;-55
2020/08/30 06:44:28;;;;;;;2.89;2.37;;;;;;;21.69;63.59;99488.17;;;;-53
2020/08/30 06:47:28;;;;;;;3.27;2.51;;;;;;;21.58;63.06;99489.09;;;;-56
2020/08/30 06:50:28;;;;;;;3.97;2.37;;;;;;;21.46;63.55;99494.20;;;;-60
2020/08/30 06:53:28;;;;;;;3.97;2.55;;;;;;;21.39;63.53;99497.05;;;;-60
2020/08/30 06:56:28;;;;;;;3.09;2.45;;;;;;;21.37;63.80;99504.00;;;;-55
2020/08/30 06:59:28;;;;;;;4.59;2.79;;;;;;;21.36;62.95;99505.81;;;;-55
2020/08/30 07:02:28;;;;;;;4.98;2.89;;;;;;;21.28;63.24;99512.23;;;;-59
2020/08/30 07:05:28;;;;;;;4.88;2.72;;;;;;;21.29;63.61;99512.30;;;;-58
2020/08/30 07:08:28;;;;;;;4.77;2.73;;;;;;;21.32;63.89;99503.62;;;;-59
2020/08/30 07:11:28;;;;;;;3.81;2.74;;;;;;;21.33;63.99;99495.20;;;;-58
2020/08/30 07:14:28;;;;;;;4.78;2.55;;;;;;;21.34;63.79;99486.30;;;;-59
2020/08/30 07:17:28;;;;;;;4.17;2.59;;;;;;;21.35;63.78;99481.95;;;;-59
2020/08/30 07:20:28;;;;;;;3.62;2.69;;;;;;;21.34;63.75;99478.95;;;;-58
2020/08/30 07:23:28;;;;;;;3.82;2.60;;;;;;;21.34;63.75;99484.52;;;;-59
2020/08/30 07:26:28;;;;;;;5.29;2.85;;;;;;;21.34;63.90;99485.64;;;;-59
2020/08/30 07:29:28;;;;;;;3.80;2.83;;;;;;;21.34;63.82;99484.01;;;;-58
2020/08/30 07:32:28;;;;;;;5.29;2.55;;;;;;;21.35;63.82;99490.27;;;;-59
2020/08/30 07:35:28;;;;;;;4.74;2.68;;;;;;;21.34;63.78;99488.75;;;;-58
2020/08/30 07:38:28;;;;;;;3.89;2.77;;;;;;;21.33;63.94;99491.44;;;;-59
2020/08/30 07:41:28;;;;;;;3.62;2.66;;;;;;;21.31;63.87;99497.17;;;;-59
2020/08/30 07:44:28;;;;;;;3.53;2.57;;;;;;;21.31;63.88;99493.09;;;;-58
2020/08/30 07:47:28;;;;;;;3.93;2.49;;;;;;;21.31;63.86;99496.36;;;;-59
2020/08/30 07:50:28;;;;;;;3.31;2.52;;;;;;;21.31;63.90;99487.23;;;;-59
2020/08/30 07:53:28;;;;;;;3.39;2.68;;;;;;;21.31;63.97;99487.48;;;;-58
2020/08/30 07:56:28;;;;;;;4.32;2.75;;;;;;;21.32;63.95;99496.12;;;;-58
2020/08/30 07:59:28;;;;;;;2.93;2.47;;;;;;;21.32;64.15;99502.64;;;;-59
2020/08/30 08:02:28;;;;;;;4.96;2.60;;;;;;;21.29;64.48;99500.06;;;;-59
2020/08/30 08:05:28;;;;;;;3.60;2.76;;;;;;;21.29;64.55;99498.34;;;;-58
2020/08/30 08:08:28;;;;;;;3.85;2.69;;;;;;;21.26;64.87;99501.81;;;;-57
2020/08/30 08:11:27;;;;;;;5.17;2.63;;;;;;;21.35;64.80;99502.89;;;;-57
2020/08/30 08:14:28;;;;;;;4.73;2.67;;;;;;;21.42;64.82;99509.89;;;;-56
2020/08/30 08:17:28;;;;;;;6.65;2.71;;;;;;;21.46;64.91;99507.80;;;;-53
2020/08/30 08:20:28;;;;;;;5.91;2.49;;;;;;;21.51;64.86;99502.34;;;;-52
2020/08/30 08:23:28;;;;;;;5.44;2.44;;;;;;;21.55;65.10;99510.51;;;;-57
2020/08/30 08:26:28;;;;;;;5.11;2.49;;;;;;;21.56;64.93;99517.73;;;;-51
2020/08/30 08:29:28;;;;;;;3.76;2.40;;;;;;;21.60;65.01;99523.36;;;;-54
2020/08/30 08:32:28;;;;;;;4.04;2.30;;;;;;;21.63;65.14;99526.19;;;;-50
2020/08/30 08:35:28;;;;;;;3.93;2.40;;;;;;;21.65;65.18;99526.23;;;;-52
2020/08/30 08:38:28;;;;;;;4.58;2.25;;;;;;;21.67;65.23;99529.95;;;;-58
2020/08/30 08:41:28;;;;;;;6.14;2.49;;;;;;;21.68;65.12;99536.42;;;;-54
2020/08/30 08:44:28;;;;;;;5.22;2.44;;;;;;;21.71;65.30;99539.91;;;;-53
2020/08/30 08:47:28;;;;;;;4.25;2.43;;;;;;;21.72;65.46;99542.72;;;;-53
2020/08/30 08:50:28;;;;;;;3.72;2.39;;;;;;;21.73;65.32;99546.00;;;;-56
2020/08/30 08:53:28;;;;;;;6.80;2.41;;;;;;;21.76;65.33;99548.95;;;;-45
2020/08/30 08:56:28;;;;;;;4.09;2.32;;;;;;;21.77;65.32;99557.33;;;;-50
2020/08/30 08:59:28;;;;;;;3.79;2.16;;;;;;;21.78;65.35;99556.23;;;;-52
2020/08/30 09:02:28;;;;;;;3.68;2.09;;;;;;;21.80;65.31;99555.23;;;;-54
2020/08/30 09:05:28;;;;;;;3.74;2.28;;;;;;;21.81;65.33;99555.31;;;;-46
2020/08/30 09:08:28;;;;;;;5.64;2.38;;;;;;;21.82;65.37;99557.23;;;;-47
2020/08/30 09:11:28;;;;;;;3.96;2.27;;;;;;;21.84;65.45;99548.48;;;;-48
2020/08/30 09:14:28;;;;;;;3.23;2.28;;;;;;;21.84;65.39;99543.00;;;;-49
2020/08/30 09:17:28;;;;;;;4.51;2.35;;;;;;;21.85;65.39;99539.33;;;;-59
2020/08/30 09:20:28;;;;;;;4.49;2.17;;;;;;;21.86;65.37;99538.00;;;;-58
2020/08/30 09:23:28;;;;;;;2.82;2.33;;;;;;;21.87;65.37;99538.88;;;;-60
2020/08/30 09:26:28;;;;;;;3.49;2.19;;;;;;;21.88;65.32;99540.23;;;;-51
2020/08/30 09:29:28;;;;;;;4.09;2.12;;;;;;;21.89;65.36;99545.45;;;;-50
2020/08/30 09:32:28;;;;;;;3.39;2.01;;;;;;;21.91;65.41;99545.66;;;;-53
2020/08/30 09:35:28;;;;;;;4.16;2.13;;;;;;;21.91;65.43;99548.09;;;;-51
2020/08/30 09:38:28;;;;;;;3.99;2.19;;;;;;;21.91;65.49;99549.06;;;;-51
2020/08/30 09:41:28;;;;;;;3.63;2.20;;;;;;;21.93;65.46;99554.59;;;;-52
2020/08/30 09:44:28;;;;;;;3.45;2.20;;;;;;;21.95;65.42;99556.92;;;;-51
2020/08/30 09:47:28;;;;;;;3.85;2.11;;;;;;;21.95;65.45;99559.19;;;;-52
2020/08/30 09:50:28;;;;;;;4.29;2.17;;;;;;;21.95;65.51;99558.45;;;;-52
2020/08/30 09:53:28;;;;;;;4.63;2.25;;;;;;;21.95;65.45;99554.78;;;;-48
2020/08/30 09:56:28;;;;;;;3.36;2.30;;;;;;;21.95;65.51;99559.05;;;;-49
2020/08/30 09:59:27;;;;;;;4.44;2.11;;;;;;;21.94;65.51;99560.86;;;;-49
2020/08/30 10:02:28;;;;;;;3.91;2.05;;;;;;;21.94;65.40;99562.07;;;;-48
2020/08/30 10:05:28;;;;;;;2.43;1.93;;;;;;;21.93;65.37;99557.36;;;;-48
2020/08/30 10:08:28;;;;;;;3.30;1.80;;;;;;;21.94;65.39;99556.30;;;;-49
2020/08/30 10:11:28;;;;;;;2.67;1.96;;;;;;;21.93;65.32;99552.94;;;;-49
2020/08/30 10:14:28;;;;;;;3.70;2.01;;;;;;;21.93;65.32;99554.17;;;;-48
2020/08/30 10:17:28;;;;;;;2.76;2.08;;;;;;;21.93;65.30;99559.80;;;;-49
2020/08/30 10:20:28;;;;;;;4.08;1.83;;;;;;;21.93;65.34;99565.68;;;;-48
2020/08/30 10:23:28;;;;;;;2.46;1.95;;;;;;;21.94;65.24;99572.13;;;;-49
2020/08/30 10:26:28;;;;;;;3.08;1.90;;;;;;;21.92;65.26;99580.14;;;;-48
2020/08/30 10:29:28;;;;;;;2.45;1.87;;;;;;;21.92;65.25;99586.67;;;;-49
2020/08/30 10:32:28;;;;;;;2.33;1.91;;;;;;;21.93;65.23;99590.39;;;;-49
2020/08/30 10:35:28;;;;;;;2.95;1.96;;;;;;;21.92;65.25;99588.14;;;;-49
2020/08/30 10:38:28;;;;;;;3.93;2.10;;;;;;;21.92;65.24;99591.96;;;;-49
2020/08/30 10:41:28;;;;;;;3.52;1.97;;;;;;;21.92;65.19;99593.84;;;;-48
2020/08/30 10:44:28;;;;;;;2.83;1.97;;;;;;;21.92;65.15;99599.23;;;;-49
2020/08/30 10:47:28;;;;;;;1.99;1.75;;;;;;;21.91;65.18;99593.11;;;;-48
2020/08/30 10:50:28;;;;;;;2.79;1.94;;;;;;;21.91;65.23;99598.33;;;;-48
2020/08/30 10:53:28;;;;;;;2.73;1.90;;;;;;;21.90;65.14;99597.62;;;;-49
2020/08/30 10:56:28;;;;;;;2.65;1.85;;;;;;;21.90;65.16;99603.26;;;;-51
2020/08/30 10:59:28;;;;;;;2.95;1.99;;;;;;;21.91;65.12;99609.75;;;;-51
2020/08/30 11:02:28;;;;;;;2.93;1.91;;;;;;;21.91;65.19;99609.52;;;;-48
2020/08/30 11:05:28;;;;;;;3.61;1.81;;;;;;;21.91;65.15;99611.88;;;;-48
2020/08/30 11:08:28;;;;;;;2.35;1.68;;;;;;;21.90;65.15;99605.39;;;;-48
2020/08/30 11:11:28;;;;;;;2.57;1.91;;;;;;;21.90;65.13;99609.85;;;;-48
2020/08/30 11:14:28;;;;;;;2.43;1.89;;;;;;;21.91;65.19;99612.54;;;;-48
2020/08/30 11:17:28;;;;;;;1.87;1.77;;;;;;;21.92;65.18;99610.34;;;;-49
2020/08/30 11:20:28;;;;;;;2.39;1.90;;;;;;;21.92;65.18;99607.56;;;;-51
2020/08/30 11:23:28;;;;;;;5.44;2.07;;;;;;;21.91;65.13;99607.63;;;;-51
2020/08/30 11:26:28;;;;;;;5.42;2.19;;;;;;;21.92;65.36;99608.38;;;;-49
2020/08/30 11:29:28;;;;;;;4.99;2.10;;;;;;;21.94;65.45;99605.30;;;;-48
2020/08/30 11:32:28;;;;;;;5.20;2.17;;;;;;;21.97;65.33;99607.95;;;;-48
2020/08/30 11:35:28;;;;;;;3.80;1.96;;;;;;;21.97;65.47;99610.06;;;;-49
2020/08/30 11:38:28;;;;;;;2.84;2.00;;;;;;;21.99;65.45;99613.80;;;;-50
2020/08/30 11:41:28;;;;;;;5.77;2.08;;;;;;;22.00;65.42;99612.65;;;;-52
2020/08/30 11:44:28;;;;;;;7.10;2.15;;;;;;;22.00;65.45;99616.95;;;;-54
2020/08/30 11:47:28;;;;;;;5.09;1.90;;;;;;;22.02;65.50;99619.37;;;;-53
2020/08/30 11:50:28;;;;;;;3.89;1.89;;;;;;;22.03;65.51;99621.16;;;;-52
2020/08/30 11:53:28;;;;;;;3.10;1.96;;;;;;;22.04;65.52;99619.25;;;;-60
2020/08/30 11:56:28;;;;;;;3.26;2.01;;;;;;;22.04;65.48;99623.98;;;;-48
2020/08/30 11:59:28;;;;;;;11.35;2.32;;;;;;;22.05;65.62;99629.82;;;;-47
2020/08/30 12:02:28;;;;;;;4.94;2.14;;;;;;;22.05;65.48;99632.20;;;;-49
2020/08/30 12:05:28;;;;;;;5.66;2.07;;;;;;;22.05;65.76;99626.89;;;;-47
2020/08/30 12:08:28;;;;;;;6.62;2.26;;;;;;;22.07;66.05;99627.92;;;;-48
2020/08/30 12:11:28;;;;;;;7.06;2.40;;;;;;;22.07;65.78;99624.34;;;;-51
2020/08/30 12:14:28;;;;;;;5.97;2.27;;;;;;;22.08;65.88;99629.62;;;;-51
2020/08/30 12:17:28;;;;;;;7.99;2.25;;;;;;;22.09;65.76;99639.39;;;;-51
2020/08/30 12:20:30;;;;;;;10.23;2.40;;;;;;;22.08;65.71;99646.34;;;;-51
2020/08/30 12:23:28;;;;;;;5.93;2.33;;;;;;;22.08;65.76;99650.09;;;;-51
2020/08/30 12:26:28;;;;;;;8.53;2.63;;;;;;;22.07;65.83;99652.47;;;;-50
2020/08/30 12:29:28;;;;;;;6.57;2.32;;;;;;;22.08;65.77;99655.66;;;;-50
2020/08/30 12:32:28;;;;;;;7.55;2.25;;;;;;;22.08;65.84;99654.68;;;;-51
2020/08/30 12:35:28;;;;;;;5.26;2.25;;;;;;;22.10;65.69;99661.73;;;;-55
2020/08/30 12:38:28;;;;;;;7.41;2.49;;;;;;;22.10;65.82;99663.53;;;;-51
2020/08/30 12:41:28;;;;;;;6.30;2.25;;;;;;;22.11;65.87;99668.50;;;;-54
2020/08/30 12:44:28;;;;;;;4.23;2.17;;;;;;;22.12;65.86;99671.89;;;;-53
2020/08/30 12:47:28;;;;;;;5.25;2.30;;;;;;;22.13;65.79;99672.80;;;;-53
2020/08/30 12:50:28;;;;;;;5.01;2.57;;;;;;;22.14;65.78;99672.59;;;;-50
2020/08/30 12:53:28;;;;;;;5.60;2.24;;;;;;;22.14;65.84;99674.48;;;;-51
2020/08/30 12:56:28;;;;;;;4.28;2.07;;;;;;;22.15;65.91;99679.95;;;;-51
2020/08/30 12:59:28;;;;;;;5.27;2.24;;;;;;;22.15;65.91;99683.03;;;;-50
2020/08/30 13:02:28;;;;;;;5.27;2.11;;;;;;;22.16;65.90;99688.30;;;;-49
2020/08/30 13:05:28;;;;;;;5.28;1.99;;;;;;;22.16;66.05;99684.88;;;;-50
2020/08/30 13:08:28;;;;;;;5.95;2.19;;;;;;;22.18;65.90;99679.71;;;;-52
2020/08/30 13:11:28;;;;;;;5.96;2.33;;;;;;;22.18;65.88;99683.87;;;;-54
2020/08/30 13:14:28;;;;;;;7.62;2.63;;;;;;;22.18;66.00;99689.16;;;;-54
2020/08/30 13:17:28;;;;;;;7.57;2.43;;;;;;;22.19;66.01;99696.11;;;;-57
2020/08/30 13:20:28;;;;;;;3.93;2.09;;;;;;;22.20;65.89;99697.95;;;;-56
2020/08/30 13:23:28;;;;;;;8.58;2.20;;;;;;;22.19;65.92;99700.98;;;;-57
2020/08/30 13:26:28;;;;;;;5.17;2.22;;;;;;;22.20;65.99;99703.76;;;;-55
2020/08/30 13:29:28;;;;;;;6.65;2.33;;;;;;;22.20;65.97;99700.16;;;;-55
2020/08/30 13:32:28;;;;;;;4.03;2.21;;;;;;;22.21;65.98;99703.48;;;;-52
2020/08/30 13:35:28;;;;;;;4.68;2.27;;;;;;;22.22;65.88;99705.19;;;;-56
2020/08/30 13:38:28;;;;;;;4.31;2.09;;;;;;;22.22;65.92;99706.81;;;;-53
2020/08/30 13:41:28;;;;;;;5.97;2.13;;;;;;;22.22;65.96;99707.20;;;;-54
2020/08/30 13:44:28;;;;;;;4.51;2.21;;;;;;;22.23;65.98;99707.33;;;;-47
2020/08/30 13:47:28;;;;;;;4.34;2.31;;;;;;;22.24;65.93;99709.59;;;;-56
2020/08/30 13:50:28;;;;;;;3.39;2.10;;;;;;;22.24;65.89;99710.89;;;;-60
2020/08/30 13:53:28;;;;;;;4.07;2.29;;;;;;;22.25;65.98;99711.13;;;;-60
2020/08/30 13:56:28;;;;;;;5.09;2.20;;;;;;;22.25;65.94;99714.06;;;;-54
2020/08/30 13:59:28;;;;;;;6.71;2.51;;;;;;;22.26;66.02;99715.00;;;;-51
2020/08/30 14:02:28;;;;;;;3.59;2.09;;;;;;;22.27;65.95;99720.34;;;;-54
2020/08/30 14:05:28;;;;;;;4.52;2.15;;;;;;;22.27;65.95;99725.38;;;;-53
2020/08/30 14:08:28;;;;;;;6.40;2.30;;;;;;;22.26;65.96;99724.66;;;;-58
2020/08/30 14:11:28;;;;;;;4.52;2.13;;;;;;;22.26;66.10;99728.33;;;;-51
2020/08/30 14:14:28;;;;;;;6.25;2.20;;;;;;;22.28;66.03;99732.70;;;;-50
2020/08/30 14:17:28;;;;;;;5.18;2.35;;;;;;;22.28;65.94;99734.81;;;;-50
2020/08/30 14:20:28;;;;;;;5.25;1.97;;;;;;;22.28;65.94;99737.42;;;;-47
2020/08/30 14:23:28;;;;;;;5.34;2.29;;;;;;;22.28;65.96;99736.20;;;;-51
2020/08/30 14:26:28;;;;;;;4.49;2.13;;;;;;;22.30;65.91;99740.84;;;;-54
2020/08/30 14:29:28;;;;;;;5.29;2.00;;;;;;;22.30;66.00;99740.91;;;;-48
2020/08/30 14:32:28;;;;;;;4.29;1.94;;;;;;;22.31;65.99;99748.34;;;;-46
2020/08/30 14:35:28;;;;;;;10.83;2.43;;;;;;;22.28;66.20;99752.61;;;;-44
2020/08/30 14:38:28;;;;;;;3.71;2.15;;;;;;;22.29;66.36;99757.59;;;;-49
2020/08/30 14:41:28;;;;;;;7.02;2.24;;;;;;;22.28;66.24;99757.67;;;;-51
2020/08/30 14:44:28;;;;;;;6.39;2.11;;;;;;;22.29;66.14;99756.92;;;;-50
2020/08/30 14:47:28;;;;;;;5.77;2.14;;;;;;;22.31;66.09;99757.33;;;;-50
2020/08/30 14:50:28;;;;;;;6.11;2.11;;;;;;;22.32;66.13;99759.25;;;;-48
2020/08/30 14:53:28;;;;;;;4.94;2.03;;;;;;;22.28;66.05;99762.73;;;;-48
2020/08/30 14:56:28;;;;;;;5.47;2.22;;;;;;;22.29;66.06;99772.13;;;;-51
2020/08/30 14:59:28;;;;;;;5.21;2.25;;;;;;;22.28;65.99;99771.78;;;;-51
2020/08/30 15:02:28;;;;;;;7.03;2.09;;;;;;;22.28;65.96;99773.52;;;;-51
2020/08/30 15:05:28;;;;;;;4.95;2.19;;;;;;;22.26;65.97;99777.12;;;;-51
2020/08/30 15:08:28;;;;;;;6.81;2.01;;;;;;;22.25;65.98;99771.20;;;;-48
2020/08/30 15:11:28;;;;;;;4.87;2.14;;;;;;;22.24;65.99;99772.98;;;;-48
2020/08/30 15:14:28;;;;;;;3.99;2.08;;;;;;;22.24;65.93;99774.80;;;;-48
2020/08/30 15:17:28;;;;;;;3.13;2.01;;;;;;;22.24;65.95;99778.64;;;;-47
2020/08/30 15:20:28;;;;;;;5.01;2.21;;;;;;;22.23;65.84;99781.59;;;;-48
2020/08/30 15:23:28;;;;;;;4.13;2.21;;;;;;;22.23;65.91;99783.55;;;;-50
2020/08/30 15:26:28;;;;;;;3.07;2.03;;;;;;;22.22;65.88;99780.94;;;;-51
2020/08/30 15:29:28;;;;;;;3.04;1.91;;;;;;;22.21;65.90;99786.41;;;;-51
2020/08/30 15:32:28;;;;;;;4.09;1.92;;;;;;;22.20;65.86;99794.24;;;;-51
2020/08/30 15:35:28;;;;;;;5.15;2.05;;;;;;;22.20;65.91;99798.10;;;;-51
2020/08/30 15:38:28;;;;;;;4.69;1.99;;;;;;;22.19;65.86;99805.28;;;;-56
2020/08/30 15:41:28;;;;;;;3.53;2.11;;;;;;;22.19;65.86;99809.38;;;;-54
2020/08/30 15:44:28;;;;;;;5.22;1.93;;;;;;;22.18;65.94;99819.03;;;;-55
2020/08/30 15:47:28;;;;;;;3.64;2.10;;;;;;;22.18;65.81;99829.45;;;;-55
2020/08/30 15:50:28;;;;;;;3.35;1.96;;;;;;;22.17;65.90;99830.06;;;;-55
2020/08/30 15:53:28;;;;;;;5.08;1.90;;;;;;;22.17;65.88;99837.07;;;;-54
2020/08/30 15:56:28;;;;;;;2.81;1.91;;;;;;;22.17;65.85;99838.39;;;;-54
2020/08/30 15:59:28;;;;;;;3.15;1.88;;;;;;;22.16;65.90;99843.62;;;;-54
2020/08/30 16:02:28;;;;;;;3.39;1.95;;;;;;;22.16;65.86;99843.95;;;;-51
2020/08/30 16:05:28;;;;;;;2.65;1.86;;;;;;;22.16;65.79;99849.16;;;;-51
2020/08/30 16:08:28;;;;;;;3.07;1.80;;;;;;;22.14;65.83;99849.28;;;;-52
2020/08/30 16:11:28;;;;;;;3.71;1.89;;;;;;;22.14;65.82;99850.81;;;;-51
2020/08/30 16:14:28;;;;;;;4.80;1.95;;;;;;;22.14;65.99;99855.00;;;;-60
2020/08/30 16:17:28;;;;;;;2.63;2.00;;;;;;;22.15;66.05;99858.07;;;;-58
2020/08/30 16:20:28;;;;;;;4.64;2.15;;;;;;;22.17;66.01;99857.33;;;;-59
2020/08/30 16:23:28;;;;;;;5.82;1.95;;;;;;;22.18;66.07;99859.89;;;;-57
2020/08/30 16:26:28;;;;;;;2.42;1.79;;;;;;;22.20;65.99;99864.36;;;;-55
2020/08/30 16:29:28;;;;;;;3.23;1.95;;;;;;;22.22;66.08;99873.14;;;;-54
2020/08/30 16:32:28;;;;;;;4.37;1.95;;;;;;;22.23;66.11;99873.72;;;;-53
2020/08/30 16:35:28;;;;;;;3.20;1.99;;;;;;;22.23;66.08;99871.55;;;;-56
2020/08/30 16:38:28;;;;;;;4.50;1.91;;;;;;;22.24;66.10;99876.81;;;;-53
2020/08/30 16:42:21;;;;;;;4.48;1.99;;;;;;;22.25;66.14;99878.72;;;;-56
2020/08/30 16:45:28;;;;;;;2.67;1.79;;;;;;;22.25;66.21;99884.17;;;;-51
2020/08/30 16:49:06;;;;;;;3.47;1.75;;;;;;;22.26;66.16;99890.52;;;;-51
2020/08/30 16:51:28;;;;;;;3.13;1.71;;;;;;;22.28;66.26;99889.50;;;;-55
2020/08/30 16:54:28;;;;;;;4.24;1.99;;;;;;;22.28;66.21;99892.59;;;;-56
2020/08/30 16:57:29;;;;;;;2.59;1.65;;;;;;;22.29;66.15;99900.70;;;;-52
2020/08/30 17:03:28;;;;;;;3.07;1.83;;;;;;;22.29;66.25;99906.48;;;;-52